Time,TemperatureF,DewpointF,PressureIn,WindDirection,WindDirectionDegrees,WindSpeedMPH,WindSpeedGustMPH,Humidity,HourlyPrecipIn,Conditions,Clouds,dailyrainin,SoftwareType,DateUTC
2013-03-31 00:02:00,36.0,-99.9,30.18,SSE,155,2.0,2.0,-999,-99.99,,,-99.99,,2013-03-31 08:02:00,
2013-03-31 00:12:00,36.0,-99.9,30.18,SSE,160,1.0,2.0,-999,-99.99,,,-99.99,,2013-03-31 08:12:00,
2013-03-31 00:22:00,36.0,-99.9,30.18,SE,127,2.0,3.0,-999,-99.99,,,-99.99,,2013-03-31 08:22:00,
2013-03-31 00:32:00,35.0,-99.9,30.18,SE,141,2.0,3.0,-999,-99.99,,,-99.99,,2013-03-31 08:32:00,
2013-03-31 00:42:00,35.0,-99.9,30.18,SSE,168,2.0,2.0,-999,-99.99,,,-99.99,,2013-03-31 08:42:00,
2013-03-31 00:52:00,36.0,-99.9,30.18,SE,130,2.0,2.0,-999,-99.99,,,-99.99,,2013-03-31 08:52:00,
2013-03-31 01:02:00,36.0,-99.9,30.18,SE,125,1.0,2.0,-999,-99.99,,,-99.99,,2013-03-31 09:02:00,
2013-03-31 01:12:00,35.0,-99.9,30.18,South,172,1.0,1.0,-999,-99.99,,,-99.99,,2013-03-31 09:12:00,
2013-03-31 01:22:00,35.0,-99.9,30.18,North,-999,-999.0,-999.0,-999,-99.99,,,-99.99,,2013-03-31 09:22:00,
2013-03-31 01:33:00,35.0,-99.9,30.18,North,-999,-999.0,-999.0,-999,-99.99,,,-99.99,,2013-03-31 09:33:00,
2013-03-31 01:43:00,35.0,-99.9,30.18,North,-999,-999.0,-999.0,-999,-99.99,,,-99.99,,2013-03-31 09:43:00,
2013-03-31 01:53:00,35.0,-99.9,30.18,North,-999,-999.0,-999.0,-999,-99.99,,,-99.99,,2013-03-31 09:53:00,
2013-03-31 02:03:00,35.0,-99.9,30.18,ESE,108,1.0,2.0,-999,-99.99,,,-99.99,,2013-03-31 10:03:00,
2013-03-31 02:13:00,34.0,-99.9,30.19,West,266,0.0,1.0,-999,-99.99,,,-99.99,,2013-03-31 10:13:00,
2013-03-31 02:24:00,34.0,-99.9,30.19,East,90,-999.0,1.0,-999,-99.99,,,-99.99,,2013-03-31 10:24:00,
2013-03-31 02:33:00,34.0,-99.9,30.19,WSW,249,0.0,1.0,-999,-99.99,,,-99.99,,2013-03-31 10:33:00,
2013-03-31 02:42:00,34.0,-99.9,30.18,SSE,147,-999.0,1.0,-999,-99.99,,,-99.99,,2013-03-31 10:42:00,
2013-03-31 02:53:00,34.0,-99.9,30.18,South,171,1.0,1.0,-999,-99.99,,,-99.99,,2013-03-31 10:53:00,
2013-03-31 03:03:00,33.0,-99.9,30.18,SSE,168,1.0,1.0,-999,-99.99,,,-99.99,,2013-03-31 11:03:00,
2013-03-31 03:12:00,33.0,-99.9,30.18,South,180,0.0,1.0,-999,-99.99,,,-99.99,,2013-03-31 11:12:00,
2013-03-31 03:23:00,33.0,-99.9,30.18,SSE,164,2.0,2.0,-999,-99.99,,,-99.99,,2013-03-31 11:23:00,
2013-03-31 03:33:00,33.0,-99.9,30.18,SSE,156,3.0,3.0,-999,-99.99,,,-99.99,,2013-03-31 11:33:00,
2013-03-31 03:43:00,33.0,-99.9,30.18,SSE,163,3.0,4.0,-999,-99.99,,,-99.99,,2013-03-31 11:43:00,
2013-03-31 03:53:00,32.0,-99.9,30.18,SSE,152,3.0,4.0,-999,-99.99,,,-99.99,,2013-03-31 11:53:00,
2013-03-31 04:03:00,32.0,-99.9,30.18,SSE,158,2.0,4.0,-999,-99.99,,,-99.99,,2013-03-31 12:03:00,
2013-03-31 04:12:00,32.0,-99.9,30.18,SSE,150,3.0,5.0,-999,-99.99,,,-99.99,,2013-03-31 12:12:00,
2013-03-31 04:22:00,32.0,-99.9,30.18,SSE,162,2.0,4.0,-999,-99.99,,,-99.99,,2013-03-31 12:22:00,
2013-03-31 04:33:00,-999.0,-99.9,30.18,SSE,150,2.0,3.0,-999,-99.99,,,-99.99,,2013-03-31 12:33:00,
2013-03-31 04:42:00,-999.0,-99.9,30.18,NNE,22,1.0,1.0,-999,-99.99,,,-99.99,,2013-03-31 12:42:00,
2013-03-31 05:02:00,32.0,-99.9,30.18,SSE,154,-999.0,1.0,-999,-99.99,,,-99.99,,2013-03-31 13:02:00,
2013-03-31 05:12:00,-999.0,-99.9,30.18,ESE,104,1.0,3.0,-999,-99.99,,,-99.99,,2013-03-31 13:12:00,
2013-03-31 05:33:00,31.0,-99.9,30.18,SE,140,0.0,1.0,-999,-99.99,,,-99.99,,2013-03-31 13:33:00,
2013-03-31 05:53:00,-999.0,-99.9,30.18,ENE,63,1.0,1.0,-999,-99.99,,,-99.99,,2013-03-31 13:53:00,
2013-03-31 06:12:00,-999.0,-99.9,30.18,South,172,1.0,1.0,-999,-99.99,,,-99.99,,2013-03-31 14:12:00,
2013-03-31 06:33:00,31.0,-99.9,30.18,SSE,154,0.0,1.0,-999,-99.99,,,-99.99,,2013-03-31 14:33:00,
2013-03-31 06:53:00,-999.0,-99.9,30.18,SSE,151,2.0,2.0,-999,-99.99,,,-99.99,,2013-03-31 14:53:00,
2013-03-31 07:03:00,31.0,-99.9,30.18,SSE,147,2.0,2.0,-999,-99.99,,,-99.99,,2013-03-31 15:03:00,
2013-03-31 07:13:00,-999.0,-99.9,30.18,South,172,1.0,2.0,-999,-99.99,,,-99.99,,2013-03-31 15:13:00,
2013-03-31 07:23:00,31.0,-99.9,30.18,SSE,167,2.0,2.0,-999,-99.99,,,-99.99,,2013-03-31 15:23:00,
2013-03-31 07:34:00,31.0,-99.9,30.18,SSE,160,3.0,3.0,-999,-99.99,,,-99.99,,2013-03-31 15:34:00,
2013-03-31 07:44:00,-999.0,-99.9,30.18,SSE,150,3.0,3.0,-999,-99.99,,,-99.99,,2013-03-31 15:44:00,
2013-03-31 07:54:00,-999.0,-99.9,30.18,SSE,153,2.0,3.0,-999,-99.99,,,-99.99,,2013-03-31 15:54:00,
2013-03-31 08:03:00,31.0,-99.9,30.18,SSE,149,2.0,3.0,-999,-99.99,,,-99.99,,2013-03-31 16:03:00,
2013-03-31 08:13:00,-999.0,-99.9,30.18,SSE,163,2.0,3.0,-999,-99.99,,,-99.99,,2013-03-31 16:13:00,
2013-03-31 08:23:00,-999.0,-99.9,30.18,SE,129,2.0,3.0,-999,-99.99,,,-99.99,,2013-03-31 16:23:00,
2013-03-31 08:34:00,-999.0,-99.9,30.18,SSE,160,2.0,2.0,-999,-99.99,,,-99.99,,2013-03-31 16:34:00,
2013-03-31 08:43:00,30.0,-99.9,30.18,South,170,3.0,4.0,-999,-99.99,,,-99.99,,2013-03-31 16:43:00,
2013-03-31 08:54:00,-999.0,-99.9,30.18,SE,146,0.0,3.0,-999,-99.99,,,-99.99,,2013-03-31 16:54:00,
2013-03-31 09:03:00,31.0,-99.9,30.18,East,85,-999.0,2.0,-999,-99.99,,,-99.99,,2013-03-31 17:03:00,
2013-03-31 09:23:00,34.0,-99.9,30.18,North,-999,-999.0,-999.0,-999,-99.99,,,-99.99,,2013-03-31 17:23:00,
2013-03-31 09:33:00,33.0,-99.9,30.18,North,-999,-999.0,-999.0,-999,-99.99,,,-99.99,,2013-03-31 17:33:00,
2013-03-31 09:43:00,33.0,-99.9,30.18,North,5,2.0,3.0,-999,-99.99,,,-99.99,,2013-03-31 17:43:00,
2013-03-31 09:52:00,34.0,-99.9,30.18,ENE,63,2.0,3.0,-999,-99.99,,,-99.99,,2013-03-31 17:52:00,
2013-03-31 10:03:00,35.0,-99.9,30.18,SE,126,1.0,2.0,-999,-99.99,,,-99.99,,2013-03-31 18:03:00,
2013-03-31 10:13:00,35.0,-99.9,30.18,NW,316,2.0,3.0,-999,-99.99,,,-99.99,,2013-03-31 18:13:00,
2013-03-31 10:22:00,38.0,-99.9,30.18,SSE,161,-999.0,1.0,-999,-99.99,,,-99.99,,2013-03-31 18:22:00,
2013-03-31 10:33:00,38.0,-99.9,30.18,SSE,161,-999.0,1.0,-999,-99.99,,,-99.99,,2013-03-31 18:33:00,
2013-03-31 10:43:00,36.0,-99.9,30.19,SSE,167,3.0,4.0,-999,-99.99,,,-99.99,,2013-03-31 18:43:00,
2013-03-31 10:53:00,37.0,-99.9,30.19,SSW,204,2.0,3.0,-999,-99.99,,,-99.99,,2013-03-31 18:53:00,
2013-03-31 11:03:00,36.0,-99.9,30.19,SSW,211,3.0,4.0,-999,-99.99,,,-99.99,,2013-03-31 19:03:00,
2013-03-31 11:12:00,37.0,-99.9,30.19,South,188,2.0,4.0,-999,-99.99,,,-99.99,,2013-03-31 19:12:00,
2013-03-31 11:22:00,37.0,-99.9,30.19,East,97,1.0,4.0,-999,-99.99,,,-99.99,,2013-03-31 19:22:00,
2013-03-31 11:33:00,37.0,-99.9,30.19,SSE,166,1.0,2.0,-999,-99.99,,,-99.99,,2013-03-31 19:33:00,
2013-03-31 11:43:00,37.0,-99.9,30.19,South,189,1.0,6.0,-999,-99.99,,,-99.99,,2013-03-31 19:43:00,
2013-03-31 11:54:00,38.0,-99.9,30.19,North,352,6.0,9.0,-999,-99.99,,,-99.99,,2013-03-31 19:54:00,
2013-03-31 12:03:00,38.0,-99.9,30.19,NNW,341,7.0,11.0,-999,-99.99,,,-99.99,,2013-03-31 20:03:00,
2013-03-31 12:13:00,38.0,-99.9,30.19,NNW,330,6.0,12.0,-999,-99.99,,,-99.99,,2013-03-31 20:13:00,
2013-03-31 12:23:00,38.0,-99.9,30.19,North,7,3.0,8.0,-999,-99.99,,,-99.99,,2013-03-31 20:23:00,
2013-03-31 12:34:00,38.0,-99.9,30.19,North,8,6.0,9.0,-999,-99.99,,,-99.99,,2013-03-31 20:34:00,
2013-03-31 12:53:00,39.0,-99.9,30.19,NNW,348,4.0,8.0,-999,-99.99,,,-99.99,,2013-03-31 20:53:00,
2013-03-31 13:03:00,40.0,-99.9,30.19,WSW,253,3.0,10.0,-999,-99.99,,,-99.99,,2013-03-31 21:03:00,
2013-03-31 13:13:00,38.0,-99.9,30.19,NNW,332,6.0,10.0,-999,-99.99,,,-99.99,,2013-03-31 21:13:00,
2013-03-31 13:22:00,41.0,-99.9,30.19,SSW,195,1.0,4.0,-999,-99.99,,,-99.99,,2013-03-31 21:22:00,
2013-03-31 13:34:00,39.0,-99.9,30.19,SW,222,6.0,9.0,-999,-99.99,,,-99.99,,2013-03-31 21:34:00,
2013-03-31 13:44:00,40.0,-99.9,30.19,West,278,3.0,12.0,-999,-99.99,,,-99.99,,2013-03-31 21:44:00,
2013-03-31 13:54:00,40.0,-99.9,30.18,North,354,6.0,9.0,-999,-99.99,,,-99.99,,2013-03-31 21:54:00,
2013-03-31 14:13:00,41.0,-99.9,30.18,North,351,2.0,7.0,-999,-99.99,,,-99.99,,2013-03-31 22:13:00,
2013-03-31 14:24:00,40.0,-99.9,30.18,SSW,208,4.0,7.0,-999,-99.99,,,-99.99,,2013-03-31 22:24:00,
2013-03-31 14:33:00,40.0,-99.9,30.18,West,260,6.0,10.0,-999,-99.99,,,-99.99,,2013-03-31 22:33:00,
2013-03-31 14:43:00,40.0,-99.9,30.18,WSW,240,8.0,9.0,-999,-99.99,,,-99.99,,2013-03-31 22:43:00,
2013-03-31 14:53:00,39.0,-99.9,30.18,SW,226,6.0,9.0,-999,-99.99,,,-99.99,,2013-03-31 22:53:00,
2013-03-31 15:03:00,39.0,-99.9,30.18,SW,233,9.0,11.0,-999,-99.99,,,-99.99,,2013-03-31 23:03:00,
2013-03-31 15:13:00,39.0,-99.9,30.18,WSW,243,9.0,11.0,-999,-99.99,,,-99.99,,2013-03-31 23:13:00,
2013-03-31 15:22:00,39.0,-99.9,30.17,SW,229,7.0,9.0,-999,-99.99,,,-99.99,,2013-03-31 23:22:00,
2013-03-31 15:33:00,39.0,-99.9,30.17,SW,221,5.0,8.0,-999,-99.99,,,-99.99,,2013-03-31 23:33:00,
2013-03-31 15:43:00,39.0,-99.9,30.17,SW,236,7.0,10.0,-999,-99.99,,,-99.99,,2013-03-31 23:43:00,
2013-03-31 15:54:00,39.0,-99.9,30.17,SW,236,7.0,10.0,-999,-99.99,,,-99.99,,2013-03-31 23:54:00,
2013-03-31 16:03:00,40.0,-99.9,30.17,East,83,2.0,7.0,-999,-99.99,,,-99.99,,2013-04-01 00:03:00,
2013-03-31 16:13:00,41.0,-99.9,30.16,SSE,147,3.0,4.0,-999,-99.99,,,-99.99,,2013-04-01 00:13:00,
2013-03-31 16:23:00,40.0,-99.9,30.16,NNW,338,3.0,4.0,-999,-99.99,,,-99.99,,2013-04-01 00:23:00,
2013-03-31 16:33:00,39.0,-99.9,30.16,North,358,7.0,9.0,-999,-99.99,,,-99.99,,2013-04-01 00:33:00,
2013-03-31 16:43:00,40.0,-99.9,30.16,NNE,33,2.0,7.0,-999,-99.99,,,-99.99,,2013-04-01 00:43:00,
2013-03-31 16:53:00,41.0,-99.9,30.15,SE,138,2.0,4.0,-999,-99.99,,,-99.99,,2013-04-01 00:53:00,
2013-03-31 17:03:00,40.0,-99.9,30.15,South,186,2.0,3.0,-999,-99.99,,,-99.99,,2013-04-01 01:03:00,
2013-03-31 17:13:00,40.0,-99.9,30.15,North,5,6.0,11.0,-999,-99.99,,,-99.99,,2013-04-01 01:13:00,
2013-03-31 17:23:00,39.0,-99.9,30.15,NNE,15,6.0,8.0,-999,-99.99,,,-99.99,,2013-04-01 01:23:00,
2013-03-31 17:33:00,39.0,-99.9,30.15,NNE,18,4.0,8.0,-999,-99.99,,,-99.99,,2013-04-01 01:33:00,
2013-03-31 17:43:00,39.0,-99.9,30.15,NNE,13,5.0,7.0,-999,-99.99,,,-99.99,,2013-04-01 01:43:00,
2013-03-31 17:53:00,39.0,-99.9,30.14,NNE,17,4.0,6.0,-999,-99.99,,,-99.99,,2013-04-01 01:53:00,
2013-03-31 18:03:00,39.0,-99.9,30.14,NE,41,4.0,7.0,-999,-99.99,,,-99.99,,2013-04-01 02:03:00,
2013-03-31 18:13:00,39.0,-99.9,30.14,ENE,58,3.0,6.0,-999,-99.99,,,-99.99,,2013-04-01 02:13:00,
2013-03-31 18:23:00,39.0,-99.9,30.14,NNE,22,1.0,4.0,-999,-99.99,,,-99.99,,2013-04-01 02:23:00,
2013-03-31 18:33:00,39.0,-99.9,30.14,NNE,20,4.0,6.0,-999,-99.99,,,-99.99,,2013-04-01 02:33:00,
2013-03-31 18:43:00,38.0,-99.9,30.14,NNE,20,6.0,10.0,-999,-99.99,,,-99.99,,2013-04-01 02:43:00,
2013-03-31 18:53:00,37.0,-99.9,30.14,NNE,25,7.0,11.0,-999,-99.99,,,-99.99,,2013-04-01 02:53:00,
2013-03-31 19:03:00,37.0,-99.9,30.14,NNE,29,4.0,7.0,-999,-99.99,,,-99.99,,2013-04-01 03:03:00,
2013-03-31 19:12:00,37.0,-99.9,30.14,NNE,29,7.0,9.0,-999,-99.99,,,-99.99,,2013-04-01 03:12:00,
2013-03-31 19:23:00,38.0,-99.9,30.14,NNW,329,6.0,8.0,-999,-99.99,,,-99.99,,2013-04-01 03:23:00,
2013-03-31 19:35:00,37.0,-99.9,30.14,NW,323,6.0,10.0,-999,-99.99,,,-99.99,,2013-04-01 03:35:00,
2013-03-31 19:43:00,37.0,-99.9,30.14,SW,218,2.0,4.0,-999,-99.99,,,-99.99,,2013-04-01 03:43:00,
2013-03-31 19:53:00,36.0,-99.9,30.14,South,174,4.0,6.0,-999,-99.99,,,-99.99,,2013-04-01 03:53:00,
2013-03-31 20:03:00,36.0,-99.9,30.14,South,180,4.0,5.0,-999,-99.99,,,-99.99,,2013-04-01 04:03:00,
2013-03-31 20:14:00,35.0,-99.9,30.14,South,183,4.0,5.0,-999,-99.99,,,-99.99,,2013-04-01 04:14:00,
2013-03-31 20:24:00,35.0,-99.9,30.14,South,173,6.0,7.0,-999,-99.99,,,-99.99,,2013-04-01 04:24:00,
2013-03-31 20:33:00,35.0,-99.9,30.14,South,178,6.0,8.0,-999,-99.99,,,-99.99,,2013-04-01 04:33:00,
2013-03-31 20:44:00,34.0,-99.9,30.14,SSE,150,5.0,7.0,-999,-99.99,,,-99.99,,2013-04-01 04:44:00,
2013-03-31 20:53:00,34.0,-99.9,30.14,SSE,149,5.0,6.0,-999,-99.99,,,-99.99,,2013-04-01 04:53:00,
2013-03-31 21:03:00,34.0,-99.9,30.14,SSE,147,3.0,7.0,-999,-99.99,,,-99.99,,2013-04-01 05:03:00,
2013-03-31 21:13:00,34.0,-99.9,30.14,SE,144,2.0,4.0,-999,-99.99,,,-99.99,,2013-04-01 05:13:00,
2013-03-31 21:23:00,34.0,-99.9,30.14,SSE,156,3.0,5.0,-999,-99.99,,,-99.99,,2013-04-01 05:23:00,
2013-03-31 21:33:00,34.0,-99.9,30.14,SSE,158,4.0,5.0,-999,-99.99,,,-99.99,,2013-04-01 05:33:00,
2013-03-31 21:43:00,34.0,-99.9,30.14,SE,146,2.0,3.0,-999,-99.99,,,-99.99,,2013-04-01 05:43:00,
2013-03-31 21:53:00,35.0,-99.9,30.14,SE,131,4.0,5.0,-999,-99.99,,,-99.99,,2013-04-01 05:53:00,
2013-03-31 22:02:00,35.0,-99.9,30.14,SE,142,1.0,5.0,-999,-99.99,,,-99.99,,2013-04-01 06:02:00,
2013-03-31 22:13:00,36.0,-99.9,30.14,NNE,25,1.0,6.0,-999,-99.99,,,-99.99,,2013-04-01 06:13:00,
2013-03-31 22:23:00,37.0,-99.9,30.14,WNW,302,9.0,13.0,-999,-99.99,,,-99.99,,2013-04-01 06:23:00,
2013-03-31 22:34:00,37.0,-99.9,30.14,WNW,300,10.0,13.0,-999,-99.99,,,-99.99,,2013-04-01 06:34:00,
2013-03-31 22:43:00,37.0,-99.9,30.14,WNW,301,10.0,12.0,-999,-99.99,,,-99.99,,2013-04-01 06:43:00,
2013-03-31 22:53:00,36.0,-99.9,30.14,NNW,327,6.0,9.0,-999,-99.99,,,-99.99,,2013-04-01 06:53:00,
2013-03-31 23:03:00,36.0,-99.9,30.14,NNW,332,7.0,10.0,-999,-99.99,,,-99.99,,2013-04-01 07:03:00,
2013-03-31 23:13:00,36.0,-99.9,30.14,WNW,289,7.0,8.0,-999,-99.99,,,-99.99,,2013-04-01 07:13:00,
2013-03-31 23:22:00,36.0,-99.9,30.14,NW,311,6.0,12.0,-999,-99.99,,,-99.99,,2013-04-01 07:22:00,
2013-03-31 23:32:00,36.0,-99.9,30.14,NW,318,6.0,11.0,-999,-99.99,,,-99.99,,2013-04-01 07:32:00,
2013-03-31 23:43:00,37.0,-99.9,30.14,NNW,328,4.0,11.0,-999,-99.99,,,-99.99,,2013-04-01 07:43:00,
2013-03-31 23:53:00,37.0,-99.9,30.14,NW,313,2.0,8.0,-999,-99.99,,,-99.99,,2013-04-01 07:53:00,